createdAt,value
2022-09-15T16:40:40.922Z,20.20
2022-09-15T16:43:44.558Z,20.30
2022-09-15T16:46:47.552Z,20.30
2022-09-15T16:49:52.615Z,20.20
2022-09-15T16:52:55.723Z,20.10
2022-09-15T17:08:20.896Z,19.90
2022-09-15T17:11:25.418Z,19.80
2022-09-15T17:14:28.882Z,19.90
2022-09-15T17:17:31.771Z,19.90
2022-09-15T17:20:39.161Z,19.90
2022-09-15T17:23:45.953Z,19.90
2022-09-15T17:26:48.818Z,19.80
2022-09-15T17:29:51.646Z,19.90
2022-09-15T17:33:02.574Z,19.80
2022-09-15T17:36:07.115Z,19.70
2022-09-15T17:39:10.003Z,19.70
2022-09-15T17:42:12.837Z,19.70
2022-09-15T17:45:19.092Z,19.70
2022-09-15T17:48:23.201Z,19.70
2022-09-15T17:51:27.703Z,19.70
2022-09-15T17:54:31.272Z,19.70
2022-09-15T17:57:34.406Z,19.70
2022-09-15T18:00:39.359Z,19.70
2022-09-15T18:03:44.555Z,19.70
2022-09-15T18:06:48.754Z,19.60
2022-09-15T18:09:51.601Z,19.60
2022-09-15T18:12:56.134Z,19.70
2022-09-15T18:16:04.304Z,19.60
2022-09-15T18:19:07.190Z,19.60
2022-09-15T18:22:14.405Z,19.60
2022-09-15T18:25:20.538Z,19.60
2022-09-15T18:28:23.425Z,19.60
2022-09-15T18:31:26.629Z,19.60
2022-09-15T18:34:29.910Z,19.60
2022-09-15T18:37:34.097Z,19.60
2022-09-15T18:40:37.361Z,19.50
2022-09-15T18:43:40.216Z,19.40
2022-09-15T18:46:43.141Z,19.40
2022-09-15T18:49:46.076Z,19.40
2022-09-15T18:52:50.914Z,19.40
2022-09-15T18:55:53.783Z,19.30
2022-09-15T18:58:56.889Z,19.30
2022-09-15T19:01:59.822Z,19.30
2022-09-15T19:05:02.748Z,19.20
2022-09-15T19:08:08.388Z,19.20
2022-09-15T19:11:11.283Z,19.30
2022-09-15T19:14:14.189Z,19.30
2022-09-15T19:17:17.253Z,19.30
2022-09-15T19:20:20.370Z,19.20
2022-09-15T19:23:24.712Z,19.20
2022-09-15T19:26:29.416Z,19.20
2022-09-15T19:29:34.675Z,19.20
2022-09-15T19:32:38.633Z,19.10
2022-09-15T19:35:42.786Z,19.00
2022-09-15T19:38:46.983Z,19.00
2022-09-15T19:41:49.892Z,19.00
2022-09-15T19:44:52.844Z,19.00
2022-09-15T19:47:55.709Z,19.10
2022-09-15T19:50:58.866Z,19.10
2022-09-15T19:54:03.641Z,18.90
2022-09-15T19:57:06.523Z,19.00
2022-09-15T20:03:13.902Z,18.90
2022-09-15T20:06:16.878Z,19.00
2022-09-15T20:09:21.156Z,19.00
2022-09-15T20:12:25.059Z,19.00
2022-09-15T20:15:29.314Z,19.10
2022-09-15T20:18:32.583Z,18.80
2022-09-15T20:21:52.786Z,18.80
2022-09-15T20:24:57.369Z,18.80
2022-09-15T20:28:00.558Z,18.70
2022-09-15T20:31:05.947Z,18.70
2022-09-15T20:34:08.972Z,18.70
2022-09-15T20:37:11.831Z,18.60
2022-09-15T20:40:16.758Z,18.50
2022-09-15T20:43:19.638Z,18.50
2022-09-15T20:46:23.916Z,18.50
2022-09-15T20:49:26.757Z,18.50
2022-09-15T20:52:34.728Z,18.60
2022-09-15T20:55:42.167Z,18.60
2022-09-15T21:01:48.687Z,18.60
2022-09-15T21:04:51.504Z,18.60
2022-09-15T21:07:54.332Z,18.60
2022-09-15T21:10:59.008Z,18.70
2022-09-15T21:14:03.219Z,18.70
2022-09-15T21:17:06.941Z,18.70
2022-09-15T21:20:10.567Z,18.80
2022-09-15T21:23:13.390Z,18.70
2022-09-15T21:26:19.750Z,18.70
2022-09-15T21:29:23.303Z,18.70
2022-09-15T21:32:26.134Z,18.70
2022-09-15T21:35:28.971Z,18.80
2022-09-15T21:38:32.064Z,18.80
2022-09-15T21:41:36.239Z,18.70
2022-09-15T21:44:39.128Z,18.70
2022-09-15T21:47:41.965Z,18.70
2022-09-15T21:50:50.261Z,18.70
2022-09-15T21:53:54.000Z,18.60
2022-09-15T21:56:58.455Z,18.60
2022-09-15T22:00:01.261Z,18.50
2022-09-15T22:03:04.160Z,18.50
2022-09-15T22:06:07.473Z,18.40
2022-09-15T22:09:13.869Z,18.50
2022-09-15T22:12:18.052Z,18.40
2022-09-15T22:15:20.964Z,18.50
2022-09-15T22:18:23.800Z,18.50
2022-09-15T22:21:28.019Z,18.50
2022-09-15T22:24:31.036Z,18.50
2022-09-15T22:27:35.220Z,18.60
2022-09-15T22:30:38.277Z,18.60
2022-09-15T22:33:42.323Z,18.50
2022-09-15T22:36:45.460Z,18.40
2022-09-15T22:39:59.307Z,18.20
2022-09-15T22:43:03.744Z,18.20
2022-09-15T22:46:07.125Z,18.20
2022-09-15T22:49:10.044Z,18.30
2022-09-15T22:52:13.243Z,18.30
2022-09-15T22:55:16.499Z,18.30
2022-09-15T22:58:21.063Z,18.40
2022-09-15T23:01:25.286Z,18.30
2022-09-15T23:04:28.320Z,18.30
2022-09-15T23:07:31.154Z,18.20
2022-09-15T23:10:33.993Z,18.20
2022-09-15T23:13:38.822Z,18.20
2022-09-15T23:16:42.677Z,18.20
2022-09-15T23:19:45.568Z,18.20
2022-09-15T23:22:48.435Z,18.20
2022-09-15T23:25:51.263Z,18.20
2022-09-15T23:28:55.854Z,18.20
2022-09-15T23:31:58.824Z,18.10
2022-09-15T23:35:01.705Z,18.10
2022-09-15T23:38:04.573Z,18.10
2022-09-15T23:41:07.892Z,18.20
2022-09-15T23:44:12.267Z,18.20
2022-09-15T23:47:15.108Z,18.20
2022-09-15T23:50:18.064Z,18.20
2022-09-15T23:53:20.901Z,18.30
2022-09-15T23:56:23.786Z,18.30
2022-09-15T23:59:27.996Z,18.20
